Time;durP1;ratioP1;P1;durP2;ratioP2;P2;SDS_P1;SDS_P2;PMS_P1;PMS_P2;Temp;Humidity;BMP_temperature;BMP_pressure;BME280_temperature;BME280_humidity;BME280_pressure;Samples;Min_cycle;Max_cycle;Signal;HPM_P1;HPM_P2
2023/04/20 00:00:52;;;;;;;;;;;;;;;20.52;62.84;98364.69;2075302;28;19928;-48
2023/04/20 00:01:52;;;;;;;;;;;;;;;20.53;62.31;98366.38;2076587;28;19971;-45
2023/04/20 00:02:54;;;;;;;;;;;;;;;20.52;62.82;98367.38;2076707;28;19928;-46
2023/04/20 00:03:54;;;;;;;;;;;;;;;20.51;62.34;98367.63;2079969;28;19986;-48
2023/04/20 00:04:56;;;;;;;;;;;;;;;20.51;62.52;98370.31;2077409;28;20036;-47
2023/04/20 00:06:00;;;;;;;;;;;;;;;20.51;62.45;98362.22;2076513;28;19994;-48
2023/04/20 00:07:01;;;;;;;;;;;;;;;20.49;62.60;98364.31;2080594;28;20398;-47
2023/04/20 00:08:02;;;;;;;;;;;;;;;20.50;62.45;98361.41;2080296;28;20641;-47
2023/04/20 00:09:04;;;;;;;;;;;;;;;20.50;62.60;98361.41;2079535;28;19924;-47
2023/04/20 00:10:05;;;;;;;;;;;;;;;20.50;62.35;98360.56;2080171;28;19929;-46
2023/04/20 00:11:07;;;;;;;;;;;;;;;20.51;62.10;98368.44;2078065;28;19933;-46
2023/04/20 00:12:07;;;;;;;;;;;;;;;20.49;62.71;98364.31;2077542;28;19986;-47
2023/04/20 00:13:09;;;;;;;;;;;;;;;20.51;62.59;98362.22;2077775;28;19932;-50
2023/04/20 00:14:09;;;;;;;;;;;;;;;20.47;62.78;98353.75;2080936;28;20406;-47
2023/04/20 00:15:12;;;;;;;;;;;;;;;20.50;62.34;98363.25;2078065;28;19955;-45
2023/04/20 00:16:12;;;;;;;;;;;;;;;20.49;62.37;98361.63;2077033;28;19928;-47
2023/04/20 00:17:14;;;;;;;;;;;;;;;20.48;63.39;98347.34;2077481;28;19925;-49
2023/04/20 00:18:14;;;;;;;;;;;;;;;20.47;62.90;98351.06;2077234;28;19976;-48
2023/04/20 00:19:16;;;;;;;;;;;;;;;20.47;62.92;98348.34;2077562;28;20426;-49
2023/04/20 00:20:17;;;;;;;;;;;;;;;20.46;62.47;98359.38;2078719;28;20398;-49
2023/04/20 00:21:22;;;;;;;;;;;;;;;20.47;62.32;98352.94;2078777;28;19929;-49
2023/04/20 00:22:24;;;;;;;;;;;;;;;20.48;62.54;98350.03;2078338;28;19997;-48
2023/04/20 00:23:25;;;;;;;;;;;;;;;20.48;62.98;98343.81;2076392;28;19928;-47
2023/04/20 00:24:25;;;;;;;;;;;;;;;20.48;62.75;98341.13;2077845;28;19978;-47
2023/04/20 00:25:28;;;;;;;;;;;;;;;20.47;62.72;98344.84;2077717;28;20517;-47
2023/04/20 00:26:28;;;;;;;;;;;;;;;20.48;63.21;98339.25;2077044;28;19933;-49
2023/04/20 00:27:30;;;;;;;;;;;;;;;20.48;63.15;98349.22;2077683;28;19972;-48
2023/04/20 00:28:30;;;;;;;;;;;;;;;20.47;63.22;98344.84;2077542;28;20368;-49
2023/04/20 00:29:32;;;;;;;;;;;;;;;20.47;62.75;98344.84;2079773;28;19932;-48
2023/04/20 00:30:34;;;;;;;;;;;;;;;20.48;62.59;98339.25;2078382;28;19932;-50
2023/04/20 00:31:35;;;;;;;;;;;;;;;20.47;63.19;98336.75;2078942;28;19925;-49
2023/04/20 00:32:36;;;;;;;;;;;;;;;20.47;62.75;98345.66;2080376;28;19985;-45
2023/04/20 00:33:37;;;;;;;;;;;;;;;20.46;62.89;98335.94;2088372;28;20044;-48
2023/04/20 00:34:37;;;;;;;;;;;;;;;20.46;63.29;98337.81;2083708;28;19985;-48
2023/04/20 00:35:39;;;;;;;;;;;;;;;20.44;63.44;98338.03;2078447;28;20350;-48
2023/04/20 00:36:39;;;;;;;;;;;;;;;20.43;63.63;98339.09;2085072;28;20466;-47
2023/04/20 00:37:41;;;;;;;;;;;;;;;20.43;63.19;98341.78;2077543;28;19929;-48
2023/04/20 00:38:41;;;;;;;;;;;;;;;20.44;63.24;98334.53;2078992;28;20516;-50
2023/04/20 00:39:43;;;;;;;;;;;;;;;20.44;63.50;98342.59;2078647;28;19928;-45
2023/04/20 00:40:43;;;;;;;;;;;;;;;20.41;63.14;98340.34;2079826;28;19933;-48
2023/04/20 00:41:45;;;;;;;;;;;;;;;20.40;63.14;98333.34;2080316;28;19932;-47
2023/04/20 00:42:45;;;;;;;;;;;;;;;20.43;63.02;98333.69;2076015;28;20378;-50
2023/04/20 00:43:51;;;;;;;;;;;;;;;20.42;63.20;98329.38;2079563;28;19967;-47
2023/04/20 00:44:51;;;;;;;;;;;;;;;20.44;62.70;98334.53;2083698;28;20310;-46
2023/04/20 00:45:54;;;;;;;;;;;;;;;20.43;62.50;98333.69;2078261;28;19954;-45
2023/04/20 00:46:56;;;;;;;;;;;;;;;20.43;63.34;98328.31;2077623;28;19935;-49
2023/04/20 00:47:57;;;;;;;;;;;;;;;20.43;63.24;98331.00;2078891;28;19928;-47
2023/04/20 00:48:58;;;;;;;;;;;;;;;20.44;62.74;98326.44;2077209;28;19990;-48
2023/04/20 00:50:00;;;;;;;;;;;;;;;20.43;62.91;98330.19;2078834;28;20070;-48
2023/04/20 00:51:01;;;;;;;;;;;;;;;20.43;62.50;98328.31;2077217;28;19982;-45
2023/04/20 00:52:02;;;;;;;;;;;;;;;20.41;62.78;98322.31;2075691;28;20018;-50
2023/04/20 00:53:03;;;;;;;;;;;;;;;20.40;62.70;98328.75;2078169;28;19925;-47
2023/04/20 00:54:04;;;;;;;;;;;;;;;20.42;63.13;98329.38;2078562;28;21123;-47
2023/04/20 00:55:06;;;;;;;;;;;;;;;20.40;63.02;98328.75;2075147;28;19929;-48
2023/04/20 00:56:07;;;;;;;;;;;;;;;20.41;62.92;98324.19;2078523;28;20565;-48
2023/04/20 00:57:09;;;;;;;;;;;;;;;20.40;63.20;98322.56;2078932;28;19936;-48
2023/04/20 00:58:11;;;;;;;;;;;;;;;20.41;63.23;98322.31;2078344;28;19957;-47
2023/04/20 00:59:11;;;;;;;;;;;;;;;20.39;63.12;98324.41;2079161;28;19928;-48
2023/04/20 01:00:13;;;;;;;;;;;;;;;20.39;63.11;98320.88;2078721;28;19929;-46
2023/04/20 01:01:16;;;;;;;;;;;;;;;20.38;63.23;98327.34;2076955;28;19939;-47
2023/04/20 01:02:18;;;;;;;;;;;;;;;20.38;63.43;98322.75;2079115;28;19932;-48
2023/04/20 01:03:18;;;;;;;;;;;;;;;20.37;63.34;98323.00;2078258;28;20303;-47
2023/04/20 01:04:20;;;;;;;;;;;;;;;20.36;63.49;98321.34;2072412;28;19932;-47
2023/04/20 01:05:20;;;;;;;;;;;;;;;20.36;63.08;98315.94;2074971;28;20386;-49
2023/04/20 01:06:22;;;;;;;;;;;;;;;20.37;63.51;98318.44;2075870;28;19986;-47
2023/04/20 01:07:22;;;;;;;;;;;;;;;20.36;63.47;98315.94;2077577;28;19954;-47
2023/04/20 01:08:25;;;;;;;;;;;;;;;20.36;63.18;98315.94;2074269;28;19936;-47
2023/04/20 01:09:26;;;;;;;;;;;;;;;20.36;63.31;98313.25;2077802;28;19932;-49
2023/04/20 01:10:27;;;;;;;;;;;;;;;20.36;62.96;98315.94;2078793;28;19933;-49
2023/04/20 01:11:28;;;;;;;;;;;;;;;20.37;63.49;98313.06;2076575;28;20482;-48
2023/04/20 01:12:30;;;;;;;;;;;;;;;20.35;63.16;98308.94;2078394;28;20006;-49
2023/04/20 01:13:30;;;;;;;;;;;;;;;20.33;63.17;98311.00;2077198;28;19932;-46
2023/04/20 01:14:32;;;;;;;;;;;;;;;20.35;63.29;98314.31;2079338;28;19924;-45
2023/04/20 01:15:34;;;;;;;;;;;;;;;20.34;63.39;98313.50;2082819;28;20689;-50
2023/04/20 01:16:36;;;;;;;;;;;;;;;20.33;63.50;98317.22;2077641;28;20038;-47
2023/04/20 01:17:38;;;;;;;;;;;;;;;20.34;63.21;98312.66;2080089;28;19932;-47
2023/04/20 01:18:43;;;;;;;;;;;;;;;20.34;63.43;98312.66;2077389;28;19939;-45
2023/04/20 01:19:44;;;;;;;;;;;;;;;20.34;63.58;98316.19;2076790;28;20815;-47
2023/04/20 01:20:46;;;;;;;;;;;;;;;20.33;63.20;98311.84;2075906;28;20063;-46
2023/04/20 01:21:46;;;;;;;;;;;;;;;20.35;63.02;98311.63;2077364;28;20482;-47
2023/04/20 01:22:50;;;;;;;;;;;;;;;20.35;63.02;98317.00;2079617;28;19932;-48
2023/04/20 01:23:50;;;;;;;;;;;;;;;20.34;63.14;98312.66;2075550;28;19961;-48
2023/04/20 01:24:52;;;;;;;;;;;;;;;20.33;63.42;98314.53;2076982;28;19928;-48
2023/04/20 01:25:53;;;;;;;;;;;;;;;20.33;63.17;98308.31;2078513;28;20326;-49
2023/04/20 01:26:55;;;;;;;;;;;;;;;20.33;63.31;98311.00;2077605;28;19928;-49
2023/04/20 01:27:55;;;;;;;;;;;;;;;20.32;63.69;98304.81;2080531;28;19928;-45
2023/04/20 01:28:57;;;;;;;;;;;;;;;20.31;63.40;98305.88;2076623;28;21417;-46
2023/04/20 01:29:58;;;;;;;;;;;;;;;20.31;63.67;98301.28;2079896;28;19928;-47
2023/04/20 01:30:59;;;;;;;;;;;;;;;20.29;63.25;98308.78;2078525;28;20018;-46
2023/04/20 01:32:00;;;;;;;;;;;;;;;20.30;63.46;98298.81;2074492;28;19928;-48
2023/04/20 01:33:01;;;;;;;;;;;;;;;20.30;63.41;98301.50;2077676;28;19928;-48
2023/04/20 01:34:02;;;;;;;;;;;;;;;20.30;63.37;98301.50;2076831;28;20908;-46
2023/04/20 01:35:04;;;;;;;;;;;;;;;20.30;63.29;98301.50;2078790;28;19928;-49
2023/04/20 01:36:05;;;;;;;;;;;;;;;20.29;62.65;98300.69;2076861;28;22052;-46
2023/04/20 01:37:07;;;;;;;;;;;;;;;20.28;62.88;98299.06;2076470;28;19945;-48
2023/04/20 01:38:08;;;;;;;;;;;;;;;20.30;63.07;98299.63;2069616;28;20527;-45
2023/04/20 01:39:10;;;;;;;;;;;;;;;20.30;62.69;98288.84;2068501;28;19979;-47
2023/04/20 01:40:12;;;;;;;;;;;;;;;20.30;62.79;98296.13;2069467;28;19925;-48
2023/04/20 01:41:14;;;;;;;;;;;;;;;20.30;62.95;98296.94;2069930;28;20407;-47
2023/04/20 01:42:15;;;;;;;;;;;;;;;20.29;62.60;98297.19;2070035;28;20033;-48
2023/04/20 01:43:16;;;;;;;;;;;;;;;20.31;62.98;98300.47;2065571;28;19952;-47
2023/04/20 01:44:18;;;;;;;;;;;;;;;20.30;62.71;98296.13;2066094;28;19933;-48
2023/04/20 01:45:18;;;;;;;;;;;;;;;20.30;62.74;98293.44;2072227;28;20513;-49
2023/04/20 01:46:20;;;;;;;;;;;;;;;20.30;62.82;98296.13;2069271;28;19928;-45
2023/04/20 01:47:20;;;;;;;;;;;;;;;20.30;63.59;98293.44;2068497;28;19929;-48
2023/04/20 01:48:21;;;;;;;;;;;;;;;20.29;63.16;98300.69;2069159;28;19939;-48
2023/04/20 01:49:22;;;;;;;;;;;;;;;20.31;63.35;98295.91;2068381;28;19936;-46
2023/04/20 01:50:23;;;;;;;;;;;;;;;20.28;63.13;98299.06;2066314;28;20032;-49
2023/04/20 01:51:24;;;;;;;;;;;;;;;20.28;63.78;98293.66;2069439;28;19932;-47
2023/04/20 01:52:26;;;;;;;;;;;;;;;20.28;63.44;98296.34;2067212;28;19933;-48
2023/04/20 01:53:28;;;;;;;;;;;;;;;20.27;62.91;98297.38;2065975;28;20010;-47
2023/04/20 01:54:29;;;;;;;;;;;;;;;20.30;63.05;98293.44;2064382;28;19929;-48
2023/04/20 01:55:29;;;;;;;;;;;;;;;20.30;62.65;98285.34;2068027;28;21992;-47
2023/04/20 01:56:31;;;;;;;;;;;;;;;20.30;62.99;98290.72;2069945;28;20077;-47
2023/04/20 01:57:31;;;;;;;;;;;;;;;20.29;63.26;98289.91;2073170;28;23059;-48
2023/04/20 01:58:33;;;;;;;;;;;;;;;20.29;62.47;98284.53;2080015;28;19990;-47
2023/04/20 01:59:33;;;;;;;;;;;;;;;20.29;63.12;98292.59;2077038;28;19932;-47
2023/04/20 02:00:35;;;;;;;;;;;;;;;20.29;62.90;98292.59;2081213;28;19929;-48
2023/04/20 02:01:35;;;;;;;;;;;;;;;20.30;62.75;98291.56;2079251;28;20391;-49
2023/04/20 02:02:37;;;;;;;;;;;;;;;20.30;62.27;98291.56;2076291;28;19928;-47
2023/04/20 02:03:37;;;;;;;;;;;;;;;20.29;62.92;98289.91;2084165;28;19986;-48
2023/04/20 02:04:39;;;;;;;;;;;;;;;20.30;62.99;98296.13;2085764;28;19932;-47
2023/04/20 02:05:39;;;;;;;;;;;;;;;20.29;63.51;98292.59;2078333;28;19933;-49
2023/04/20 02:06:41;;;;;;;;;;;;;;;20.27;62.90;98289.31;2075630;28;20852;-49
2023/04/20 02:07:41;;;;;;;;;;;;;;;20.27;62.73;98292.00;2075922;28;19928;-47
2023/04/20 02:08:44;;;;;;;;;;;;;;;20.26;63.04;98290.38;2074790;28;20061;-48
2023/04/20 02:09:44;;;;;;;;;;;;;;;20.24;62.79;98292.44;2078993;28;20461;-49
2023/04/20 02:10:46;;;;;;;;;;;;;;;20.26;63.19;98295.75;2077802;28;19983;-47
2023/04/20 02:11:46;;;;;;;;;;;;;;;20.24;63.27;98289.75;2077368;28;20844;-50
2023/04/20 02:12:48;;;;;;;;;;;;;;;20.22;62.91;98289.16;2077138;28;19928;-49
2023/04/20 02:13:48;;;;;;;;;;;;;;;20.22;63.64;98291.84;2076957;28;21459;-46
2023/04/20 02:14:50;;;;;;;;;;;;;;;20.24;62.98;98288.94;2075609;28;19994;-49
2023/04/20 02:15:51;;;;;;;;;;;;;;;20.23;63.67;98293.50;2080072;28;19929;-49
2023/04/20 02:16:53;;;;;;;;;;;;;;;20.23;63.25;98287.31;2077809;28;20786;-48
2023/04/20 02:17:53;;;;;;;;;;;;;;;20.22;62.91;98285.63;2077440;28;20027;-48
2023/04/20 02:18:55;;;;;;;;;;;;;;;20.21;63.56;98287.50;2077334;28;20361;-49
2023/04/20 02:19:55;;;;;;;;;;;;;;;20.21;63.39;98287.50;2075876;28;20473;-47
2023/04/20 02:20:56;;;;;;;;;;;;;;;20.20;63.73;98280.50;2078996;28;19932;-49
2023/04/20 02:21:57;;;;;;;;;;;;;;;20.17;63.73;98283.63;2076766;28;19978;-47
2023/04/20 02:22:58;;;;;;;;;;;;;;;20.19;63.55;98280.69;2077773;28;20015;-48
2023/04/20 02:24:00;;;;;;;;;;;;;;;20.19;63.34;98278.81;2077794;28;19932;-47
2023/04/20 02:25:02;;;;;;;;;;;;;;;20.20;63.29;98287.75;2076590;28;19985;-47
2023/04/20 02:26:02;;;;;;;;;;;;;;;20.21;63.28;98284.81;2078643;28;20410;-47
2023/04/20 02:27:04;;;;;;;;;;;;;;;20.21;63.02;98279.44;2076312;28;19929;-46
2023/04/20 02:28:05;;;;;;;;;;;;;;;20.22;63.33;98277.56;2076357;28;20037;-48
2023/04/20 02:29:06;;;;;;;;;;;;;;;20.21;63.26;98275.91;2079729;28;20394;-48
2023/04/20 02:30:07;;;;;;;;;;;;;;;20.18;63.66;98279.88;2078508;28;19974;-46
2023/04/20 02:31:08;;;;;;;;;;;;;;;20.17;63.29;98278.25;2080456;28;19936;-48
2023/04/20 02:32:09;;;;;;;;;;;;;;;20.16;63.29;98268.50;2081056;28;20354;-46
2023/04/20 02:33:10;;;;;;;;;;;;;;;20.18;63.27;98274.50;2082984;28;19929;-49
2023/04/20 02:34:11;;;;;;;;;;;;;;;20.16;63.26;98271.19;2085895;28;19932;-46
2023/04/20 02:35:12;;;;;;;;;;;;;;;20.16;63.14;98271.19;2086919;28;19946;-47
2023/04/20 02:36:13;;;;;;;;;;;;;;;20.15;63.31;98266.88;2086073;28;19982;-47
2023/04/20 02:37:14;;;;;;;;;;;;;;;20.14;63.21;98270.59;2086636;28;20357;-46
2023/04/20 02:38:15;;;;;;;;;;;;;;;20.13;63.99;98268.94;2085874;28;22801;-46
2023/04/20 02:39:18;;;;;;;;;;;;;;;20.15;63.64;98264.16;2086349;28;19933;-54
2023/04/20 02:40:18;;;;;;;;;;;;;;;20.13;63.54;98268.94;2086254;28;19940;-52
2023/04/20 02:41:20;;;;;;;;;;;;;;;20.11;63.95;98264.81;2087857;28;20291;-55
2023/04/20 02:42:20;;;;;;;;;;;;;;;20.10;64.22;98264.00;2087377;28;19936;-45
2023/04/20 02:43:22;;;;;;;;;;;;;;;20.11;63.29;98271.03;2085268;28;20334;-48
2023/04/20 02:44:22;;;;;;;;;;;;;;;20.10;63.35;98272.09;2086201;28;19982;-46
2023/04/20 02:45:23;;;;;;;;;;;;;;;20.09;63.58;98265.88;2086797;28;20403;-47
2023/04/20 02:46:24;;;;;;;;;;;;;;;20.12;63.66;98267.31;2085258;28;19924;-49
2023/04/20 02:47:26;;;;;;;;;;;;;;;20.12;63.64;98267.31;2086810;28;21035;-48
2023/04/20 02:48:26;;;;;;;;;;;;;;;20.11;63.66;98262.94;2077417;28;19928;-47
2023/04/20 02:49:27;;;;;;;;;;;;;;;20.14;63.21;98264.38;2078706;28;19933;-47
2023/04/20 02:50:28;;;;;;;;;;;;;;;20.14;63.14;98265.19;2076429;28;19928;-50
2023/04/20 02:51:30;;;;;;;;;;;;;;;20.14;63.46;98265.19;2080401;28;20010;-47
2023/04/20 02:52:30;;;;;;;;;;;;;;;20.13;63.27;98258.19;2076401;28;19982;-47
2023/04/20 02:53:32;;;;;;;;;;;;;;;20.12;63.08;98261.94;2077655;28;20333;-49
2023/04/20 02:54:34;;;;;;;;;;;;;;;20.11;63.65;98260.25;2078085;28;19948;-48
2023/04/20 02:55:35;;;;;;;;;;;;;;;20.11;63.36;98259.44;2078908;28;19932;-48
2023/04/20 02:56:36;;;;;;;;;;;;;;;20.11;63.55;98262.94;2076854;28;19928;-49
2023/04/20 02:57:37;;;;;;;;;;;;;;;20.08;63.84;98258.00;2073330;28;21344;-48
2023/04/20 02:58:37;;;;;;;;;;;;;;;20.08;64.17;98260.72;2076704;28;19936;-47
2023/04/20 02:59:39;;;;;;;;;;;;;;;20.09;64.03;98257.81;2077867;28;19928;-48
2023/04/20 03:00:39;;;;;;;;;;;;;;;20.06;64.44;98254.75;2077094;28;19932;-49
2023/04/20 03:01:41;;;;;;;;;;;;;;;20.08;64.24;98264.22;2077731;28;19928;-47
2023/04/20 03:02:41;;;;;;;;;;;;;;;20.07;64.21;98253.69;2081563;28;19962;-45
2023/04/20 03:03:43;;;;;;;;;;;;;;;20.06;63.92;98252.88;2076524;28;19959;-46
2023/04/20 03:04:43;;;;;;;;;;;;;;;20.08;63.70;98249.94;2075390;28;20068;-45
2023/04/20 03:05:45;;;;;;;;;;;;;;;20.12;63.27;98253.03;2079922;28;20379;-49
2023/04/20 03:06:45;;;;;;;;;;;;;;;20.09;64.37;98257.00;2077187;28;22637;-48
2023/04/20 03:07:47;;;;;;;;;;;;;;;20.08;63.64;98250.75;2073809;28;19978;-48
2023/04/20 03:08:47;;;;;;;;;;;;;;;20.08;63.87;98250.75;2078792;28;19986;-49
2023/04/20 03:09:50;;;;;;;;;;;;;;;20.05;64.22;98245.81;2075577;28;19932;-49
2023/04/20 03:10:50;;;;;;;;;;;;;;;20.05;64.58;98255.78;2076473;28;19963;-46
2023/04/20 03:11:52;;;;;;;;;;;;;;;20.06;64.28;98249.34;2075294;28;19932;-49
2023/04/20 03:12:52;;;;;;;;;;;;;;;20.08;63.73;98255.31;2077265;28;20546;-50
2023/04/20 03:13:54;;;;;;;;;;;;;;;20.06;64.39;98254.75;2076893;28;19941;-50
2023/04/20 03:14:54;;;;;;;;;;;;;;;20.04;64.54;98254.94;2076492;28;20334;-48
2023/04/20 03:15:56;;;;;;;;;;;;;;;20.05;63.99;98255.78;2077954;28;19932;-49
2023/04/20 03:16:56;;;;;;;;;;;;;;;20.05;63.60;98253.91;2077126;28;20315;-51
2023/04/20 03:17:57;;;;;;;;;;;;;;;20.04;64.44;98256.81;2079257;28;19963;-47
2023/04/20 03:18:58;;;;;;;;;;;;;;;20.05;64.15;98255.78;2073140;28;19936;-48
2023/04/20 03:19:59;;;;;;;;;;;;;;;20.06;64.41;98246.66;2075641;28;20730;-47
2023/04/20 03:21:00;;;;;;;;;;;;;;;20.04;64.20;98249.56;2074616;28;19939;-47
2023/04/20 03:22:01;;;;;;;;;;;;;;;20.05;64.29;98247.69;2073647;28;19928;-47
2023/04/20 03:23:02;;;;;;;;;;;;;;;20.05;64.75;98247.69;2072283;28;20009;-47
2023/04/20 03:24:03;;;;;;;;;;;;;;;20.06;63.63;98247.47;2073885;28;20018;-48
2023/04/20 03:25:06;;;;;;;;;;;;;;;20.05;64.61;98250.38;2073781;28;20035;-47
2023/04/20 03:26:08;;;;;;;;;;;;;;;20.06;64.33;98250.19;2075652;28;19925;-49
2023/04/20 03:27:08;;;;;;;;;;;;;;;20.05;64.87;98250.38;2076439;28;19938;-46
2023/04/20 03:28:09;;;;;;;;;;;;;;;20.04;64.33;98252.25;2068722;28;19956;-49
2023/04/20 03:29:10;;;;;;;;;;;;;;;20.03;64.59;98250.63;2074930;28;19933;-47
2023/04/20 03:30:12;;;;;;;;;;;;;;;20.03;64.96;98247.09;2071161;28;19933;-47
2023/04/20 03:31:12;;;;;;;;;;;;;;;20.03;64.45;98250.63;2075308;28;19982;-49
2023/04/20 03:32:14;;;;;;;;;;;;;;;20.02;64.35;98251.66;2077391;28;19982;-46
2023/04/20 03:33:14;;;;;;;;;;;;;;;20.01;64.06;98254.59;2080125;28;20419;-46
2023/04/20 03:34:16;;;;;;;;;;;;;;;20.01;64.13;98252.72;2076594;28;19932;-49
2023/04/20 03:35:17;;;;;;;;;;;;;;;20.02;64.23;98253.53;2078313;28;19974;-49
2023/04/20 03:36:18;;;;;;;;;;;;;;;20.02;64.56;98257.03;2074758;28;20391;-52
2023/04/20 03:37:18;;;;;;;;;;;;;;;20.03;64.11;98252.47;2078995;28;20017;-47
2023/04/20 03:38:20;;;;;;;;;;;;;;;20.05;64.36;98253.06;2076580;28;19933;-47
2023/04/20 03:39:20;;;;;;;;;;;;;;;20.05;64.63;98261.97;2076644;28;19981;-49
2023/04/20 03:40:23;;;;;;;;;;;;;;;20.06;64.93;98252.06;2074976;28;20983;-50
2023/04/20 03:41:24;;;;;;;;;;;;;;;20.07;64.65;98253.69;2077317;28;19966;-50
2023/04/20 03:42:25;;;;;;;;;;;;;;;20.13;64.83;98260.06;2079988;28;20417;-49
2023/04/20 03:43:26;;;;;;;;;;;;;;;20.18;64.69;98262.91;2074726;28;19944;-51
2023/04/20 03:44:27;;;;;;;;;;;;;;;20.19;64.81;98251.91;2078530;28;20314;-49
2023/04/20 03:45:28;;;;;;;;;;;;;;;20.21;64.86;98255.19;2077580;28;20034;-47
2023/04/20 03:46:29;;;;;;;;;;;;;;;20.22;64.22;98254.13;2077639;28;19936;-48
2023/04/20 03:47:29;;;;;;;;;;;;;;;20.26;64.56;98247.28;2078331;28;19932;-46
2023/04/20 03:48:32;;;;;;;;;;;;;;;20.28;64.93;98252.41;2078151;28;20516;-48
2023/04/20 03:49:34;;;;;;;;;;;;;;;20.30;64.52;98253.03;2081223;28;19940;-47
2023/04/20 03:50:34;;;;;;;;;;;;;;;20.30;64.57;98253.84;2081562;28;19958;-46
2023/04/20 03:51:36;;;;;;;;;;;;;;;20.31;64.75;98254.69;2078661;28;19929;-47
2023/04/20 03:52:36;;;;;;;;;;;;;;;20.31;64.60;98255.50;2081279;28;19932;-47
2023/04/20 03:53:38;;;;;;;;;;;;;;;20.31;64.67;98252.81;2077503;28;19937;-47
2023/04/20 03:54:38;;;;;;;;;;;;;;;20.34;64.65;98258.78;2075994;28;20509;-50
2023/04/20 03:55:41;;;;;;;;;;;;;;;20.33;64.21;98257.16;2078533;28;19932;-50
2023/04/20 03:56:43;;;;;;;;;;;;;;;20.34;64.28;98256.09;2078280;28;19932;-48
2023/04/20 03:57:45;;;;;;;;;;;;;;;20.33;64.47;98257.97;2078354;28;19994;-48
2023/04/20 03:58:45;;;;;;;;;;;;;;;20.33;64.32;98257.16;2077787;28;19924;-47
2023/04/20 03:59:47;;;;;;;;;;;;;;;20.36;64.52;98259.38;2078734;28;19971;-51
2023/04/20 04:00:47;;;;;;;;;;;;;;;20.32;64.54;98259.03;2080634;28;19990;-48
2023/04/20 04:01:48;;;;;;;;;;;;;;;20.31;64.75;98255.50;2076150;28;19928;-51
2023/04/20 04:02:49;;;;;;;;;;;;;;;20.34;64.25;98256.09;2077403;28;19981;-46
2023/04/20 04:03:50;;;;;;;;;;;;;;;20.34;63.70;98258.78;2075077;28;20010;-48
2023/04/20 04:04:51;;;;;;;;;;;;;;;20.35;64.31;98260.44;2080751;28;19928;-48
2023/04/20 04:05:52;;;;;;;;;;;;;;;20.36;64.11;98262.09;2079438;28;19982;-47
2023/04/20 04:06:53;;;;;;;;;;;;;;;20.35;63.49;98260.44;2078213;28;19998;-46
2023/04/20 04:07:54;;;;;;;;;;;;;;;20.37;64.18;98263.75;2077128;28;20585;-47
2023/04/20 04:08:55;;;;;;;;;;;;;;;20.37;64.27;98267.25;2076787;28;19932;-47
2023/04/20 04:09:56;;;;;;;;;;;;;;;20.37;63.87;98263.75;2076911;28;19974;-49
2023/04/20 04:10:58;;;;;;;;;;;;;;;20.37;63.89;98264.56;2074803;28;19928;-48
2023/04/20 04:12:00;;;;;;;;;;;;;;;20.37;64.28;98264.56;2078496;28;19944;-46
2023/04/20 04:13:00;;;;;;;;;;;;;;;20.37;64.04;98269.13;2086137;28;19933;-49
2023/04/20 04:14:03;;;;;;;;;;;;;;;20.37;64.43;98269.13;2080427;28;20354;-49
2023/04/20 04:15:05;;;;;;;;;;;;;;;20.36;63.85;98264.78;2084749;28;19926;-47
2023/04/20 04:16:06;;;;;;;;;;;;;;;20.37;64.15;98272.66;2083648;28;19928;-47
2023/04/20 04:17:07;;;;;;;;;;;;;;;20.38;64.18;98268.06;2083015;28;19990;-49
2023/04/20 04:18:08;;;;;;;;;;;;;;;20.38;63.93;98268.91;2086166;28;19932;-47
2023/04/20 04:19:08;;;;;;;;;;;;;;;20.37;63.17;98271.84;2083621;28;20155;-47
2023/04/20 04:20:10;;;;;;;;;;;;;;;20.36;63.66;98268.28;2083287;28;20075;-50
2023/04/20 04:21:11;;;;;;;;;;;;;;;20.38;63.93;98270.78;2077158;28;19928;-47
2023/04/20 04:22:12;;;;;;;;;;;;;;;20.38;63.84;98276.16;2081703;28;19979;-48
2023/04/20 04:23:13;;;;;;;;;;;;;;;20.37;63.38;98269.13;2080920;28;20271;-51
2023/04/20 04:24:15;;;;;;;;;;;;;;;20.39;63.55;98272.41;2081080;28;20011;-49
2023/04/20 04:25:16;;;;;;;;;;;;;;;20.39;64.11;98275.09;2084355;28;20329;-51
2023/04/20 04:26:20;;;;;;;;;;;;;;;20.39;64.43;98275.09;2079611;28;19924;-50
2023/04/20 04:27:21;;;;;;;;;;;;;;;20.40;63.65;98280.28;2081830;28;19939;-46
2023/04/20 04:28:22;;;;;;;;;;;;;;;20.39;63.96;98269.72;2084083;28;20098;-49
2023/04/20 04:29:24;;;;;;;;;;;;;;;20.40;64.36;98274.06;2080300;28;19928;-48
2023/04/20 04:30:26;;;;;;;;;;;;;;;20.41;63.89;98279.22;2076534;28;19936;-47
2023/04/20 04:31:27;;;;;;;;;;;;;;;20.39;63.51;98275.91;2077288;27;20374;-54
2023/04/20 04:32:29;;;;;;;;;;;;;;;20.38;64.02;98276.16;2080197;28;19932;-46
2023/04/20 04:33:29;;;;;;;;;;;;;;;20.39;64.38;98272.41;2082856;28;19932;-52
2023/04/20 04:34:32;;;;;;;;;;;;;;;20.38;63.79;98276.97;2089108;28;19932;-51
2023/04/20 04:35:33;;;;;;;;;;;;;;;20.39;63.99;98275.09;2087029;28;19936;-55
2023/04/20 04:36:35;;;;;;;;;;;;;;;20.38;63.87;98281.53;2078293;28;19967;-52
2023/04/20 04:37:36;;;;;;;;;;;;;;;20.36;63.41;98275.56;2085036;28;20451;-50
2023/04/20 04:38:37;;;;;;;;;;;;;;;20.37;63.44;98282.59;2082402;28;21663;-57
2023/04/20 04:39:38;;;;;;;;;;;;;;;20.37;64.29;98285.28;2079335;28;19936;-52
2023/04/20 04:40:40;;;;;;;;;;;;;;;20.37;63.08;98285.28;2068943;28;19932;-52
2023/04/20 04:41:42;;;;;;;;;;;;;;;20.36;63.56;98286.31;2070288;28;19971;-51
2023/04/20 04:42:44;;;;;;;;;;;;;;;20.35;63.80;98288.19;2071437;28;19925;-51
2023/04/20 04:43:46;;;;;;;;;;;;;;;20.35;64.43;98277.44;2071739;28;20420;-49
2023/04/20 04:44:47;;;;;;;;;;;;;;;20.35;63.68;98282.00;2070589;28;19932;-52
2023/04/20 04:45:48;;;;;;;;;;;;;;;20.35;64.15;98282.00;2071791;28;19929;-50
2023/04/20 04:46:50;;;;;;;;;;;;;;;20.35;63.72;98276.59;2070293;28;19933;-50
2023/04/20 04:47:52;;;;;;;;;;;;;;;20.35;63.74;98287.38;2071539;28;19925;-47
2023/04/20 04:48:55;;;;;;;;;;;;;;;20.34;64.18;98277.63;2068941;28;19936;-54
2023/04/20 04:49:55;;;;;;;;;;;;;;;20.33;63.73;98284.91;2071998;28;19940;-55
2023/04/20 04:50:57;;;;;;;;;;;;;;;20.34;63.92;98286.56;2073715;28;20365;-51
2023/04/20 04:51:57;;;;;;;;;;;;;;;20.34;64.30;98288.41;2071049;28;19936;-48
2023/04/20 04:52:59;;;;;;;;;;;;;;;20.34;64.27;98285.72;2075223;28;19928;-50
2023/04/20 04:53:59;;;;;;;;;;;;;;;20.33;64.32;98284.06;2080248;28;20387;-56
2023/04/20 04:55:01;;;;;;;;;;;;;;;20.34;64.44;98285.72;2078311;28;19924;-52
2023/04/20 04:56:02;;;;;;;;;;;;;;;20.33;64.33;98289.47;2080135;28;20058;-46
2023/04/20 04:57:05;;;;;;;;;;;;;;;20.32;64.03;98288.66;2079800;28;19928;-50
2023/04/20 04:58:06;;;;;;;;;;;;;;;20.33;64.30;98292.16;2078784;28;20026;-52
2023/04/20 04:59:07;;;;;;;;;;;;;;;20.31;64.37;98287.84;2078764;28;19928;-48
2023/04/20 05:00:10;;;;;;;;;;;;;;;20.31;64.13;98287.84;2078432;28;20388;-48
2023/04/20 05:01:11;;;;;;;;;;;;;;;20.32;64.03;98291.34;2080552;28;22366;-47
2023/04/20 05:02:12;;;;;;;;;;;;;;;20.31;64.03;98285.13;2078229;28;19929;-55
2023/04/20 05:03:13;;;;;;;;;;;;;;;20.31;63.88;98292.41;2078630;28;19936;-51
2023/04/20 05:04:14;;;;;;;;;;;;;;;20.31;64.48;98292.41;2074992;28;19994;-55
2023/04/20 05:05:15;;;;;;;;;;;;;;;20.30;64.32;98288.03;2079558;28;19947;-53
2023/04/20 05:06:16;;;;;;;;;;;;;;;20.30;64.32;98296.13;2082346;28;19928;-51
2023/04/20 05:07:17;;;;;;;;;;;;;;;20.29;64.48;98292.59;2083166;28;19958;-46
2023/04/20 05:08:18;;;;;;;;;;;;;;;20.30;64.40;98291.56;2078844;28;19976;-54
2023/04/20 05:09:19;;;;;;;;;;;;;;;20.28;64.52;98293.66;2078992;28;19929;-56
2023/04/20 05:10:20;;;;;;;;;;;;;;;20.28;64.44;98299.06;2078668;28;25288;-51
2023/04/20 05:11:21;;;;;;;;;;;;;;;20.27;64.20;98294.69;2079393;28;20019;-47
2023/04/20 05:12:24;;;;;;;;;;;;;;;20.29;64.34;98299.88;2066382;28;20520;-55
2023/04/20 05:13:25;;;;;;;;;;;;;;;20.28;64.35;98300.91;2077113;28;19928;-46
2023/04/20 05:14:26;;;;;;;;;;;;;;;20.27;64.45;98297.38;2079341;28;19929;-55
2023/04/20 05:15:27;;;;;;;;;;;;;;;20.28;64.27;98300.91;2078452;28;19967;-48
2023/04/20 05:16:28;;;;;;;;;;;;;;;20.27;64.28;98301.94;2078678;28;19924;-53
2023/04/20 05:17:30;;;;;;;;;;;;;;;20.26;61.63;98300.31;2074097;28;19924;-52
2023/04/20 05:18:31;;;;;;;;;;;;;;;20.23;61.09;98304.28;2070143;28;19933;-53
2023/04/20 05:19:31;;;;;;;;;;;;;;;20.22;61.51;98299.91;2072634;28;20022;-56